sensor_id;sensor_type;location;lat;lon;timestamp;P1;durP1;ratioP1;P2;durP2;ratioP2
12567;SDS011;6349;50.904;6.136;2024-01-06T00:00:25;5.57;;;5.07;;
12567;SDS011;6349;50.904;6.136;2024-01-06T00:02:25;5.33;;;4.83;;
12567;SDS011;6349;50.904;6.136;2024-01-06T00:04:26;6.20;;;4.93;;
12567;SDS011;6349;50.904;6.136;2024-01-06T00:06:27;5.57;;;5.07;;
12567;SDS011;6349;50.904;6.136;2024-01-06T00:08:28;5.57;;;5.07;;
12567;SDS011;6349;50.904;6.136;2024-01-06T00:10:28;5.80;;;5.20;;
12567;SDS011;6349;50.904;6.136;2024-01-06T00:12:29;5.50;;;5.00;;
12567;SDS011;6349;50.904;6.136;2024-01-06T00:14:29;6.20;;;5.57;;
12567;SDS011;6349;50.904;6.136;2024-01-06T00:16:30;6.03;;;5.47;;
12567;SDS011;6349;50.904;6.136;2024-01-06T00:18:30;6.20;;;5.60;;
12567;SDS011;6349;50.904;6.136;2024-01-06T00:20:31;6.00;;;5.40;;
12567;SDS011;6349;50.904;6.136;2024-01-06T00:22:31;6.93;;;6.23;;
12567;SDS011;6349;50.904;6.136;2024-01-06T00:24:32;6.93;;;6.23;;
12567;SDS011;6349;50.904;6.136;2024-01-06T00:26:33;7.03;;;6.33;;
12567;SDS011;6349;50.904;6.136;2024-01-06T00:28:33;7.67;;;6.83;;
12567;SDS011;6349;50.904;6.136;2024-01-06T00:30:34;7.57;;;6.70;;
12567;SDS011;6349;50.904;6.136;2024-01-06T00:32:34;7.73;;;6.93;;
12567;SDS011;6349;50.904;6.136;2024-01-06T00:34:35;8.60;;;7.70;;
12567;SDS011;6349;50.904;6.136;2024-01-06T00:36:35;7.93;;;7.13;;
12567;SDS011;6349;50.904;6.136;2024-01-06T00:38:36;8.43;;;7.63;;
12567;SDS011;6349;50.904;6.136;2024-01-06T00:40:36;8.80;;;7.57;;
12567;SDS011;6349;50.904;6.136;2024-01-06T00:42:37;8.27;;;7.47;;
12567;SDS011;6349;50.904;6.136;2024-01-06T00:44:37;8.83;;;8.03;;
12567;SDS011;6349;50.904;6.136;2024-01-06T00:46:38;8.90;;;8.00;;
12567;SDS011;6349;50.904;6.136;2024-01-06T00:48:39;9.93;;;8.17;;
12567;SDS011;6349;50.904;6.136;2024-01-06T00:50:40;8.53;;;7.67;;
12567;SDS011;6349;50.904;6.136;2024-01-06T00:52:41;9.13;;;8.17;;
12567;SDS011;6349;50.904;6.136;2024-01-06T00:54:41;10.93;;;8.87;;
12567;SDS011;6349;50.904;6.136;2024-01-06T00:56:42;9.97;;;8.60;;
12567;SDS011;6349;50.904;6.136;2024-01-06T00:58:43;10.67;;;8.40;;
12567;SDS011;6349;50.904;6.136;2024-01-06T01:00:43;10.77;;;8.77;;
12567;SDS011;6349;50.904;6.136;2024-01-06T01:02:44;11.60;;;8.60;;
12567;SDS011;6349;50.904;6.136;2024-01-06T01:04:44;11.20;;;8.83;;
12567;SDS011;6349;50.904;6.136;2024-01-06T01:06:45;9.77;;;8.77;;
12567;SDS011;6349;50.904;6.136;2024-01-06T01:08:46;10.87;;;8.67;;
12567;SDS011;6349;50.904;6.136;2024-01-06T01:10:46;9.67;;;8.70;;
12567;SDS011;6349;50.904;6.136;2024-01-06T01:12:47;9.97;;;9.00;;
12567;SDS011;6349;50.904;6.136;2024-01-06T01:14:47;10.23;;;9.23;;
12567;SDS011;6349;50.904;6.136;2024-01-06T01:16:48;10.63;;;9.53;;
12567;SDS011;6349;50.904;6.136;2024-01-06T01:18:48;10.93;;;9.20;;
12567;SDS011;6349;50.904;6.136;2024-01-06T01:20:49;9.40;;;8.43;;
12567;SDS011;6349;50.904;6.136;2024-01-06T01:22:50;10.20;;;8.57;;
12567;SDS011;6349;50.904;6.136;2024-01-06T01:24:50;10.37;;;9.30;;
12567;SDS011;6349;50.904;6.136;2024-01-06T01:26:51;9.90;;;8.90;;
12567;SDS011;6349;50.904;6.136;2024-01-06T01:28:52;9.80;;;8.73;;
12567;SDS011;6349;50.904;6.136;2024-01-06T01:30:52;9.50;;;8.50;;
12567;SDS011;6349;50.904;6.136;2024-01-06T01:32:53;9.30;;;8.47;;
12567;SDS011;6349;50.904;6.136;2024-01-06T01:34:53;10.30;;;8.70;;
12567;SDS011;6349;50.904;6.136;2024-01-06T01:36:54;10.97;;;9.47;;
12567;SDS011;6349;50.904;6.136;2024-01-06T01:38:55;10.63;;;9.53;;
12567;SDS011;6349;50.904;6.136;2024-01-06T01:40:56;12.73;;;9.97;;
12567;SDS011;6349;50.904;6.136;2024-01-06T01:42:56;11.23;;;9.23;;
12567;SDS011;6349;50.904;6.136;2024-01-06T01:44:57;11.13;;;10.00;;
12567;SDS011;6349;50.904;6.136;2024-01-06T01:46:57;10.57;;;9.47;;
12567;SDS011;6349;50.904;6.136;2024-01-06T01:48:59;10.33;;;9.23;;
12567;SDS011;6349;50.904;6.136;2024-01-06T01:51:01;11.83;;;9.73;;
12567;SDS011;6349;50.904;6.136;2024-01-06T01:53:02;11.60;;;9.87;;
12567;SDS011;6349;50.904;6.136;2024-01-06T01:55:03;10.70;;;9.60;;
12567;SDS011;6349;50.904;6.136;2024-01-06T01:57:04;10.80;;;9.70;;
12567;SDS011;6349;50.904;6.136;2024-01-06T01:59:11;10.37;;;9.30;;
12567;SDS011;6349;50.904;6.136;2024-01-06T02:01:13;10.70;;;9.37;;
12567;SDS011;6349;50.904;6.136;2024-01-06T02:03:15;11.10;;;9.50;;
12567;SDS011;6349;50.904;6.136;2024-01-06T02:05:16;11.17;;;9.47;;
12567;SDS011;6349;50.904;6.136;2024-01-06T02:07:17;11.37;;;9.50;;
12567;SDS011;6349;50.904;6.136;2024-01-06T02:09:17;10.80;;;9.73;;
12567;SDS011;6349;50.904;6.136;2024-01-06T02:11:18;12.57;;;9.47;;
12567;SDS011;6349;50.904;6.136;2024-01-06T02:13:18;9.87;;;8.77;;
12567;SDS011;6349;50.904;6.136;2024-01-06T02:15:19;11.20;;;9.23;;
12567;SDS011;6349;50.904;6.136;2024-01-06T02:17:19;9.77;;;8.77;;
12567;SDS011;6349;50.904;6.136;2024-01-06T02:19:20;11.13;;;8.97;;
12567;SDS011;6349;50.904;6.136;2024-01-06T02:21:21;10.67;;;9.37;;
12567;SDS011;6349;50.904;6.136;2024-01-06T02:23:22;12.27;;;9.77;;
12567;SDS011;6349;50.904;6.136;2024-01-06T02:25:23;10.20;;;9.20;;
12567;SDS011;6349;50.904;6.136;2024-01-06T02:27:23;9.87;;;8.87;;
12567;SDS011;6349;50.904;6.136;2024-01-06T02:29:24;9.00;;;8.10;;
12567;SDS011;6349;50.904;6.136;2024-01-06T02:31:24;9.67;;;8.30;;
12567;SDS011;6349;50.904;6.136;2024-01-06T02:33:25;9.00;;;7.80;;
12567;SDS011;6349;50.904;6.136;2024-01-06T02:35:25;8.70;;;7.80;;
12567;SDS011;6349;50.904;6.136;2024-01-06T02:37:26;9.90;;;7.77;;
12567;SDS011;6349;50.904;6.136;2024-01-06T02:39:27;8.90;;;7.00;;
12567;SDS011;6349;50.904;6.136;2024-01-06T02:41:27;6.93;;;6.23;;
12567;SDS011;6349;50.904;6.136;2024-01-06T02:43:28;7.90;;;6.97;;
12567;SDS011;6349;50.904;6.136;2024-01-06T02:45:28;6.27;;;5.67;;
12567;SDS011;6349;50.904;6.136;2024-01-06T02:47:29;7.13;;;5.90;;
12567;SDS011;6349;50.904;6.136;2024-01-06T02:49:29;7.37;;;6.17;;
12567;SDS011;6349;50.904;6.136;2024-01-06T02:51:30;8.47;;;5.97;;
12567;SDS011;6349;50.904;6.136;2024-01-06T02:53:30;7.93;;;6.57;;
12567;SDS011;6349;50.904;6.136;2024-01-06T02:55:31;8.27;;;6.13;;
12567;SDS011;6349;50.904;6.136;2024-01-06T02:57:31;7.10;;;5.93;;
12567;SDS011;6349;50.904;6.136;2024-01-06T02:59:32;8.50;;;6.07;;
12567;SDS011;6349;50.904;6.136;2024-01-06T03:01:34;6.90;;;5.80;;
12567;SDS011;6349;50.904;6.136;2024-01-06T03:03:35;6.27;;;5.63;;
12567;SDS011;6349;50.904;6.136;2024-01-06T03:05:35;7.87;;;6.17;;
12567;SDS011;6349;50.904;6.136;2024-01-06T03:07:37;6.43;;;5.33;;
12567;SDS011;6349;50.904;6.136;2024-01-06T03:09:37;6.87;;;5.73;;
12567;SDS011;6349;50.904;6.136;2024-01-06T03:11:38;6.30;;;5.70;;
12567;SDS011;6349;50.904;6.136;2024-01-06T03:13:39;6.83;;;5.70;;
12567;SDS011;6349;50.904;6.136;2024-01-06T03:15:40;6.70;;;5.90;;
12567;SDS011;6349;50.904;6.136;2024-01-06T03:17:40;7.63;;;5.87;;
12567;SDS011;6349;50.904;6.136;2024-01-06T03:19:41;6.10;;;5.50;;
12567;SDS011;6349;50.904;6.136;2024-01-06T03:21:41;6.00;;;5.33;;
12567;SDS011;6349;50.904;6.136;2024-01-06T03:23:42;6.37;;;5.67;;
12567;SDS011;6349;50.904;6.136;2024-01-06T03:25:42;6.60;;;4.93;;
12567;SDS011;6349;50.904;6.136;2024-01-06T03:27:43;5.93;;;5.27;;
12567;SDS011;6349;50.904;6.136;2024-01-06T03:29:43;5.00;;;4.60;;
12567;SDS011;6349;50.904;6.136;2024-01-06T03:31:44;6.77;;;4.67;;
12567;SDS011;6349;50.904;6.136;2024-01-06T03:33:45;5.70;;;5.10;;
12567;SDS011;6349;50.904;6.136;2024-01-06T03:35:46;5.70;;;4.90;;
12567;SDS011;6349;50.904;6.136;2024-01-06T03:37:46;5.40;;;4.90;;
12567;SDS011;6349;50.904;6.136;2024-01-06T03:39:47;6.33;;;5.23;;
12567;SDS011;6349;50.904;6.136;2024-01-06T03:41:48;6.20;;;5.40;;
12567;SDS011;6349;50.904;6.136;2024-01-06T03:43:48;6.90;;;6.20;;
12567;SDS011;6349;50.904;6.136;2024-01-06T03:45:49;6.83;;;6.10;;
12567;SDS011;6349;50.904;6.136;2024-01-06T03:47:49;7.43;;;5.87;;
12567;SDS011;6349;50.904;6.136;2024-01-06T03:49:50;6.67;;;5.97;;
12567;SDS011;6349;50.904;6.136;2024-01-06T03:51:51;6.63;;;5.93;;
12567;SDS011;6349;50.904;6.136;2024-01-06T03:53:51;6.90;;;6.20;;
12567;SDS011;6349;50.904;6.136;2024-01-06T03:55:52;7.67;;;6.17;;
12567;SDS011;6349;50.904;6.136;2024-01-06T03:57:53;8.00;;;7.17;;
12567;SDS011;6349;50.904;6.136;2024-01-06T03:59:53;7.60;;;6.53;;
12567;SDS011;6349;50.904;6.136;2024-01-06T04:01:54;7.80;;;6.90;;
12567;SDS011;6349;50.904;6.136;2024-01-06T04:03:54;8.30;;;7.47;;
12567;SDS011;6349;50.904;6.136;2024-01-06T04:05:55;8.50;;;7.70;;
12567;SDS011;6349;50.904;6.136;2024-01-06T04:07:55;9.23;;;7.77;;
12567;SDS011;6349;50.904;6.136;2024-01-06T04:09:56;8.60;;;7.70;;
12567;SDS011;6349;50.904;6.136;2024-01-06T04:11:56;9.37;;;7.87;;
12567;SDS011;6349;50.904;6.136;2024-01-06T04:13:57;9.17;;;7.73;;
12567;SDS011;6349;50.904;6.136;2024-01-06T04:15:58;9.00;;;7.90;;
12567;SDS011;6349;50.904;6.136;2024-01-06T04:18:01;8.53;;;7.67;;
12567;SDS011;6349;50.904;6.136;2024-01-06T04:20:05;8.80;;;7.90;;
12567;SDS011;6349;50.904;6.136;2024-01-06T04:22:06;9.43;;;8.13;;
12567;SDS011;6349;50.904;6.136;2024-01-06T04:24:07;9.00;;;8.10;;
12567;SDS011;6349;50.904;6.136;2024-01-06T04:26:08;9.73;;;8.73;;
12567;SDS011;6349;50.904;6.136;2024-01-06T04:28:09;9.23;;;8.33;;
12567;SDS011;6349;50.904;6.136;2024-01-06T04:30:10;9.50;;;8.47;;
12567;SDS011;6349;50.904;6.136;2024-01-06T04:32:11;9.27;;;8.37;;
12567;SDS011;6349;50.904;6.136;2024-01-06T04:34:11;9.93;;;8.27;;
12567;SDS011;6349;50.904;6.136;2024-01-06T04:36:12;8.47;;;7.43;;
12567;SDS011;6349;50.904;6.136;2024-01-06T04:38:12;10.00;;;8.90;;
12567;SDS011;6349;50.904;6.136;2024-01-06T04:40:13;10.30;;;8.43;;
12567;SDS011;6349;50.904;6.136;2024-01-06T04:42:13;10.13;;;9.03;;
12567;SDS011;6349;50.904;6.136;2024-01-06T04:44:14;9.90;;;8.63;;
12567;SDS011;6349;50.904;6.136;2024-01-06T04:46:15;9.83;;;8.83;;
12567;SDS011;6349;50.904;6.136;2024-01-06T04:48:15;10.93;;;8.47;;
12567;SDS011;6349;50.904;6.136;2024-01-06T04:50:16;10.20;;;9.00;;
12567;SDS011;6349;50.904;6.136;2024-01-06T04:52:17;10.53;;;8.80;;
12567;SDS011;6349;50.904;6.136;2024-01-06T04:54:17;10.00;;;8.33;;
12567;SDS011;6349;50.904;6.136;2024-01-06T04:56:18;9.30;;;8.03;;
12567;SDS011;6349;50.904;6.136;2024-01-06T04:58:19;10.83;;;8.73;;
12567;SDS011;6349;50.904;6.136;2024-01-06T05:00:19;9.40;;;8.27;;
12567;SDS011;6349;50.904;6.136;2024-01-06T05:02:20;9.73;;;8.60;;
12567;SDS011;6349;50.904;6.136;2024-01-06T05:04:20;9.07;;;8.17;;
12567;SDS011;6349;50.904;6.136;2024-01-06T05:06:21;11.20;;;9.37;;
12567;SDS011;6349;50.904;6.136;2024-01-06T05:08:23;9.80;;;8.80;;
12567;SDS011;6349;50.904;6.136;2024-01-06T05:10:24;10.63;;;8.87;;
12567;SDS011;6349;50.904;6.136;2024-01-06T05:12:25;10.83;;;9.00;;
12567;SDS011;6349;50.904;6.136;2024-01-06T05:14:25;10.77;;;9.33;;
12567;SDS011;6349;50.904;6.136;2024-01-06T05:16:26;11.33;;;9.40;;
12567;SDS011;6349;50.904;6.136;2024-01-06T05:18:27;11.43;;;9.17;;
12567;SDS011;6349;50.904;6.136;2024-01-06T05:20:28;10.80;;;9.10;;
12567;SDS011;6349;50.904;6.136;2024-01-06T05:22:28;11.27;;;9.57;;
12567;SDS011;6349;50.904;6.136;2024-01-06T05:24:29;11.10;;;9.90;;
12567;SDS011;6349;50.904;6.136;2024-01-06T05:26:29;10.80;;;9.47;;
12567;SDS011;6349;50.904;6.136;2024-01-06T05:28:30;12.07;;;10.07;;
12567;SDS011;6349;50.904;6.136;2024-01-06T05:30:31;11.23;;;9.70;;
12567;SDS011;6349;50.904;6.136;2024-01-06T05:32:31;10.97;;;9.43;;
12567;SDS011;6349;50.904;6.136;2024-01-06T05:34:32;11.13;;;9.70;;
12567;SDS011;6349;50.904;6.136;2024-01-06T05:36:32;11.27;;;9.43;;
12567;SDS011;6349;50.904;6.136;2024-01-06T05:38:33;10.90;;;9.23;;
12567;SDS011;6349;50.904;6.136;2024-01-06T05:40:34;12.10;;;9.43;;
12567;SDS011;6349;50.904;6.136;2024-01-06T05:42:34;11.50;;;9.90;;
12567;SDS011;6349;50.904;6.136;2024-01-06T05:44:35;12.03;;;9.80;;
12567;SDS011;6349;50.904;6.136;2024-01-06T05:46:37;12.77;;;10.73;;
12567;SDS011;6349;50.904;6.136;2024-01-06T05:48:37;11.30;;;9.47;;
12567;SDS011;6349;50.904;6.136;2024-01-06T05:50:38;12.17;;;10.00;;
12567;SDS011;6349;50.904;6.136;2024-01-06T05:52:42;11.23;;;9.67;;
12567;SDS011;6349;50.904;6.136;2024-01-06T05:54:42;11.23;;;9.40;;
12567;SDS011;6349;50.904;6.136;2024-01-06T05:56:43;11.63;;;10.17;;
12567;SDS011;6349;50.904;6.136;2024-01-06T05:58:43;12.10;;;9.90;;
12567;SDS011;6349;50.904;6.136;2024-01-06T06:00:44;11.03;;;9.67;;
12567;SDS011;6349;50.904;6.136;2024-01-06T06:02:46;10.77;;;9.57;;
12567;SDS011;6349;50.904;6.136;2024-01-06T06:04:47;11.03;;;9.67;;
12567;SDS011;6349;50.904;6.136;2024-01-06T06:06:48;11.30;;;9.67;;
12567;SDS011;6349;50.904;6.136;2024-01-06T06:08:48;12.20;;;9.80;;
12567;SDS011;6349;50.904;6.136;2024-01-06T06:10:49;11.00;;;9.60;;
12567;SDS011;6349;50.904;6.136;2024-01-06T06:13:01;11.47;;;9.97;;
12567;SDS011;6349;50.904;6.136;2024-01-06T06:15:02;10.70;;;9.27;;
12567;SDS011;6349;50.904;6.136;2024-01-06T06:17:04;11.10;;;9.90;;
12567;SDS011;6349;50.904;6.136;2024-01-06T06:19:04;11.07;;;9.60;;
12567;SDS011;6349;50.904;6.136;2024-01-06T06:21:06;11.40;;;9.10;;
12567;SDS011;6349;50.904;6.136;2024-01-06T06:23:07;10.93;;;9.27;;
12567;SDS011;6349;50.904;6.136;2024-01-06T06:25:08;10.43;;;9.30;;
12567;SDS011;6349;50.904;6.136;2024-01-06T06:27:08;10.37;;;8.97;;
12567;SDS011;6349;50.904;6.136;2024-01-06T06:29:09;10.20;;;8.63;;
12567;SDS011;6349;50.904;6.136;2024-01-06T06:31:09;9.23;;;7.97;;
12567;SDS011;6349;50.904;6.136;2024-01-06T06:33:10;10.03;;;7.93;;
12567;SDS011;6349;50.904;6.136;2024-01-06T06:35:11;8.70;;;7.77;;
12567;SDS011;6349;50.904;6.136;2024-01-06T06:37:11;8.70;;;7.80;;
12567;SDS011;6349;50.904;6.136;2024-01-06T06:39:12;8.83;;;7.87;;
12567;SDS011;6349;50.904;6.136;2024-01-06T06:41:12;9.37;;;7.90;;
12567;SDS011;6349;50.904;6.136;2024-01-06T06:43:13;8.40;;;7.43;;
12567;SDS011;6349;50.904;6.136;2024-01-06T06:45:14;8.50;;;7.60;;
12567;SDS011;6349;50.904;6.136;2024-01-06T06:47:15;8.63;;;7.73;;
12567;SDS011;6349;50.904;6.136;2024-01-06T06:49:15;8.50;;;7.37;;
12567;SDS011;6349;50.904;6.136;2024-01-06T06:51:16;7.83;;;7.00;;
12567;SDS011;6349;50.904;6.136;2024-01-06T06:53:16;8.03;;;7.23;;
12567;SDS011;6349;50.904;6.136;2024-01-06T06:55:17;9.83;;;7.73;;
12567;SDS011;6349;50.904;6.136;2024-01-06T06:57:18;8.47;;;7.07;;
12567;SDS011;6349;50.904;6.136;2024-01-06T06:59:19;7.97;;;7.00;;
12567;SDS011;6349;50.904;6.136;2024-01-06T07:01:19;8.67;;;7.37;;
12567;SDS011;6349;50.904;6.136;2024-01-06T07:03:20;8.37;;;7.30;;
12567;SDS011;6349;50.904;6.136;2024-01-06T07:05:21;8.30;;;7.40;;
12567;SDS011;6349;50.904;6.136;2024-01-06T07:07:21;7.63;;;6.70;;
12567;SDS011;6349;50.904;6.136;2024-01-06T07:09:22;8.37;;;6.70;;
12567;SDS011;6349;50.904;6.136;2024-01-06T07:11:25;8.93;;;6.63;;
12567;SDS011;6349;50.904;6.136;2024-01-06T07:13:26;8.30;;;7.23;;
12567;SDS011;6349;50.904;6.136;2024-01-06T07:15:26;8.00;;;7.17;;
12567;SDS011;6349;50.904;6.136;2024-01-06T07:17:27;8.20;;;7.17;;
12567;SDS011;6349;50.904;6.136;2024-01-06T07:19:27;7.63;;;6.83;;
12567;SDS011;6349;50.904;6.136;2024-01-06T07:21:28;7.87;;;6.93;;
12567;SDS011;6349;50.904;6.136;2024-01-06T07:23:28;7.30;;;6.50;;
12567;SDS011;6349;50.904;6.136;2024-01-06T07:25:29;8.63;;;7.10;;
12567;SDS011;6349;50.904;6.136;2024-01-06T07:27:30;7.90;;;6.63;;
12567;SDS011;6349;50.904;6.136;2024-01-06T07:29:31;8.27;;;6.77;;
12567;SDS011;6349;50.904;6.136;2024-01-06T07:31:31;7.20;;;6.50;;
12567;SDS011;6349;50.904;6.136;2024-01-06T07:33:32;7.27;;;6.40;;
12567;SDS011;6349;50.904;6.136;2024-01-06T07:35:32;7.53;;;6.67;;
12567;SDS011;6349;50.904;6.136;2024-01-06T07:37:33;7.90;;;6.93;;
12567;SDS011;6349;50.904;6.136;2024-01-06T07:39:33;7.10;;;6.40;;
12567;SDS011;6349;50.904;6.136;2024-01-06T07:41:34;6.70;;;6.00;;
12567;SDS011;6349;50.904;6.136;2024-01-06T07:43:34;7.60;;;6.80;;
12567;SDS011;6349;50.904;6.136;2024-01-06T07:45:35;7.53;;;6.43;;
12567;SDS011;6349;50.904;6.136;2024-01-06T07:47:36;6.53;;;5.83;;
12567;SDS011;6349;50.904;6.136;2024-01-06T07:49:37;6.90;;;6.20;;
12567;SDS011;6349;50.904;6.136;2024-01-06T07:51:37;6.20;;;5.60;;
12567;SDS011;6349;50.904;6.136;2024-01-06T07:53:38;7.17;;;6.30;;
12567;SDS011;6349;50.904;6.136;2024-01-06T07:55:38;6.90;;;6.20;;
12567;SDS011;6349;50.904;6.136;2024-01-06T07:57:39;7.00;;;6.30;;
12567;SDS011;6349;50.904;6.136;2024-01-06T07:59:40;6.43;;;5.67;;
12567;SDS011;6349;50.904;6.136;2024-01-06T08:01:41;6.47;;;5.87;;
12567;SDS011;6349;50.904;6.136;2024-01-06T08:03:42;6.77;;;6.07;;
12567;SDS011;6349;50.904;6.136;2024-01-06T08:05:44;8.23;;;6.50;;
12567;SDS011;6349;50.904;6.136;2024-01-06T08:07:44;6.83;;;6.13;;
12567;SDS011;6349;50.904;6.136;2024-01-06T08:09:45;6.00;;;5.33;;
12567;SDS011;6349;50.904;6.136;2024-01-06T08:11:45;7.07;;;6.17;;
12567;SDS011;6349;50.904;6.136;2024-01-06T08:13:48;6.07;;;5.47;;
12567;SDS011;6349;50.904;6.136;2024-01-06T08:15:48;7.07;;;6.20;;
12567;SDS011;6349;50.904;6.136;2024-01-06T08:17:49;6.77;;;5.87;;
12567;SDS011;6349;50.904;6.136;2024-01-06T08:19:49;6.60;;;5.90;;
12567;SDS011;6349;50.904;6.136;2024-01-06T08:21:50;6.07;;;5.47;;
12567;SDS011;6349;50.904;6.136;2024-01-06T08:23:51;6.23;;;5.63;;
12567;SDS011;6349;50.904;6.136;2024-01-06T08:25:51;5.77;;;5.17;;
12567;SDS011;6349;50.904;6.136;2024-01-06T08:27:52;6.53;;;5.83;;
12567;SDS011;6349;50.904;6.136;2024-01-06T08:29:52;6.43;;;5.73;;
12567;SDS011;6349;50.904;6.136;2024-01-06T08:31:53;6.37;;;5.73;;
12567;SDS011;6349;50.904;6.136;2024-01-06T08:33:54;6.93;;;5.60;;
12567;SDS011;6349;50.904;6.136;2024-01-06T08:35:55;6.13;;;5.53;;
12567;SDS011;6349;50.904;6.136;2024-01-06T08:37:55;6.60;;;5.70;;
12567;SDS011;6349;50.904;6.136;2024-01-06T08:39:56;6.30;;;5.63;;
12567;SDS011;6349;50.904;6.136;2024-01-06T08:41:56;6.23;;;5.63;;
12567;SDS011;6349;50.904;6.136;2024-01-06T08:43:57;6.87;;;5.97;;
12567;SDS011;6349;50.904;6.136;2024-01-06T08:45:58;6.20;;;5.37;;
12567;SDS011;6349;50.904;6.136;2024-01-06T08:47:58;6.60;;;5.90;;
12567;SDS011;6349;50.904;6.136;2024-01-06T08:49:59;6.70;;;5.93;;
12567;SDS011;6349;50.904;6.136;2024-01-06T08:51:59;6.40;;;5.80;;
12567;SDS011;6349;50.904;6.136;2024-01-06T08:54:00;6.77;;;6.13;;
12567;SDS011;6349;50.904;6.136;2024-01-06T08:56:03;6.57;;;5.93;;
12567;SDS011;6349;50.904;6.136;2024-01-06T08:58:04;6.43;;;5.83;;
12567;SDS011;6349;50.904;6.136;2024-01-06T09:00:05;7.37;;;5.80;;
12567;SDS011;6349;50.904;6.136;2024-01-06T09:02:06;6.23;;;5.63;;
12567;SDS011;6349;50.904;6.136;2024-01-06T09:04:07;5.90;;;5.30;;
12567;SDS011;6349;50.904;6.136;2024-01-06T09:06:09;6.47;;;5.87;;
12567;SDS011;6349;50.904;6.136;2024-01-06T09:08:09;6.67;;;5.20;;
12567;SDS011;6349;50.904;6.136;2024-01-06T09:10:10;6.07;;;5.47;;
12567;SDS011;6349;50.904;6.136;2024-01-06T09:12:11;6.50;;;5.63;;
12567;SDS011;6349;50.904;6.136;2024-01-06T09:14:11;6.90;;;5.60;;
12567;SDS011;6349;50.904;6.136;2024-01-06T09:16:12;5.73;;;5.13;;
12567;SDS011;6349;50.904;6.136;2024-01-06T09:18:12;6.00;;;5.23;;
12567;SDS011;6349;50.904;6.136;2024-01-06T09:20:13;5.80;;;5.07;;
12567;SDS011;6349;50.904;6.136;2024-01-06T09:22:13;6.93;;;5.70;;
12567;SDS011;6349;50.904;6.136;2024-01-06T09:24:14;6.00;;;5.40;;
12567;SDS011;6349;50.904;6.136;2024-01-06T09:26:15;5.53;;;5.03;;
12567;SDS011;6349;50.904;6.136;2024-01-06T09:28:16;6.07;;;5.37;;
12567;SDS011;6349;50.904;6.136;2024-01-06T09:30:17;5.73;;;5.13;;
12567;SDS011;6349;50.904;6.136;2024-01-06T09:32:18;6.00;;;5.40;;
12567;SDS011;6349;50.904;6.136;2024-01-06T09:34:18;5.87;;;4.80;;
12567;SDS011;6349;50.904;6.136;2024-01-06T09:36:19;7.47;;;5.43;;
12567;SDS011;6349;50.904;6.136;2024-01-06T09:38:19;5.80;;;5.20;;
12567;SDS011;6349;50.904;6.136;2024-01-06T09:40:23;5.63;;;5.13;;
12567;SDS011;6349;50.904;6.136;2024-01-06T09:42:24;6.53;;;5.20;;
12567;SDS011;6349;50.904;6.136;2024-01-06T09:44:25;6.20;;;5.20;;
12567;SDS011;6349;50.904;6.136;2024-01-06T09:46:27;5.90;;;5.20;;
12567;SDS011;6349;50.904;6.136;2024-01-06T09:48:31;5.87;;;5.27;;
12567;SDS011;6349;50.904;6.136;2024-01-06T09:50:35;6.00;;;4.97;;
12567;SDS011;6349;50.904;6.136;2024-01-06T09:52:39;6.20;;;5.50;;
12567;SDS011;6349;50.904;6.136;2024-01-06T09:54:46;6.00;;;5.40;;
12567;SDS011;6349;50.904;6.136;2024-01-06T09:56:53;5.70;;;4.90;;
12567;SDS011;6349;50.904;6.136;2024-01-06T09:58:56;7.33;;;5.50;;
12567;SDS011;6349;50.904;6.136;2024-01-06T10:00:56;5.93;;;5.27;;
12567;SDS011;6349;50.904;6.136;2024-01-06T10:02:58;5.30;;;4.80;;
12567;SDS011;6349;50.904;6.136;2024-01-06T10:04:59;5.47;;;4.83;;
12567;SDS011;6349;50.904;6.136;2024-01-06T10:06:59;5.13;;;4.50;;
12567;SDS011;6349;50.904;6.136;2024-01-06T10:09:00;5.73;;;5.10;;
12567;SDS011;6349;50.904;6.136;2024-01-06T10:11:00;5.47;;;4.90;;
12567;SDS011;6349;50.904;6.136;2024-01-06T10:13:01;5.50;;;4.90;;
12567;SDS011;6349;50.904;6.136;2024-01-06T10:15:02;5.23;;;4.73;;
12567;SDS011;6349;50.904;6.136;2024-01-06T10:17:05;5.43;;;4.90;;
12567;SDS011;6349;50.904;6.136;2024-01-06T10:19:07;5.33;;;4.80;;
12567;SDS011;6349;50.904;6.136;2024-01-06T10:21:08;7.00;;;5.17;;
12567;SDS011;6349;50.904;6.136;2024-01-06T10:23:09;5.27;;;4.77;;
12567;SDS011;6349;50.904;6.136;2024-01-06T10:25:10;5.50;;;4.93;;
12567;SDS011;6349;50.904;6.136;2024-01-06T10:27:11;5.83;;;4.90;;
12567;SDS011;6349;50.904;6.136;2024-01-06T10:29:15;5.40;;;4.80;;
12567;SDS011;6349;50.904;6.136;2024-01-06T10:31:15;5.97;;;5.27;;
12567;SDS011;6349;50.904;6.136;2024-01-06T10:33:16;5.83;;;5.13;;
12567;SDS011;6349;50.904;6.136;2024-01-06T10:35:17;5.43;;;4.93;;
12567;SDS011;6349;50.904;6.136;2024-01-06T10:37:18;5.83;;;4.87;;
12567;SDS011;6349;50.904;6.136;2024-01-06T10:39:19;5.27;;;4.77;;
12567;SDS011;6349;50.904;6.136;2024-01-06T10:41:20;5.73;;;5.13;;
12567;SDS011;6349;50.904;6.136;2024-01-06T10:43:23;5.87;;;5.20;;
12567;SDS011;6349;50.904;6.136;2024-01-06T10:45:28;5.60;;;4.90;;
12567;SDS011;6349;50.904;6.136;2024-01-06T10:47:29;6.10;;;5.03;;
12567;SDS011;6349;50.904;6.136;2024-01-06T10:49:31;5.57;;;4.90;;
12567;SDS011;6349;50.904;6.136;2024-01-06T10:51:33;5.30;;;4.80;;
12567;SDS011;6349;50.904;6.136;2024-01-06T10:53:36;5.40;;;4.90;;
12567;SDS011;6349;50.904;6.136;2024-01-06T10:55:40;6.37;;;5.20;;
12567;SDS011;6349;50.904;6.136;2024-01-06T10:57:42;5.90;;;4.43;;
12567;SDS011;6349;50.904;6.136;2024-01-06T10:59:43;5.83;;;5.07;;
12567;SDS011;6349;50.904;6.136;2024-01-06T11:01:48;5.30;;;4.80;;
12567;SDS011;6349;50.904;6.136;2024-01-06T11:03:50;5.47;;;4.80;;
12567;SDS011;6349;50.904;6.136;2024-01-06T11:05:52;5.03;;;4.37;;
12567;SDS011;6349;50.904;6.136;2024-01-06T11:07:52;5.40;;;4.87;;
12567;SDS011;6349;50.904;6.136;2024-01-06T11:10:08;6.13;;;5.30;;
12567;SDS011;6349;50.904;6.136;2024-01-06T11:12:16;5.73;;;5.13;;
12567;SDS011;6349;50.904;6.136;2024-01-06T11:14:25;5.60;;;4.90;;
12567;SDS011;6349;50.904;6.136;2024-01-06T11:16:34;6.37;;;4.70;;
12567;SDS011;6349;50.904;6.136;2024-01-06T11:18:38;6.47;;;4.73;;
12567;SDS011;6349;50.904;6.136;2024-01-06T11:21:00;6.03;;;5.37;;
12567;SDS011;6349;50.904;6.136;2024-01-06T11:23:18;6.53;;;4.90;;
12567;SDS011;6349;50.904;6.136;2024-01-06T11:25:24;5.97;;;4.83;;
12567;SDS011;6349;50.904;6.136;2024-01-06T11:27:25;6.50;;;5.10;;
12567;SDS011;6349;50.904;6.136;2024-01-06T11:29:28;6.00;;;5.07;;
12567;SDS011;6349;50.904;6.136;2024-01-06T11:31:30;6.77;;;5.27;;
12567;SDS011;6349;50.904;6.136;2024-01-06T11:33:31;6.40;;;5.00;;
12567;SDS011;6349;50.904;6.136;2024-01-06T11:35:32;6.20;;;5.30;;
12567;SDS011;6349;50.904;6.136;2024-01-06T11:37:37;7.13;;;5.00;;
12567;SDS011;6349;50.904;6.136;2024-01-06T11:39:51;7.77;;;5.60;;
12567;SDS011;6349;50.904;6.136;2024-01-06T11:41:53;5.37;;;4.87;;
12567;SDS011;6349;50.904;6.136;2024-01-06T11:43:53;6.20;;;5.27;;
12567;SDS011;6349;50.904;6.136;2024-01-06T11:45:54;5.53;;;4.90;;
12567;SDS011;6349;50.904;6.136;2024-01-06T11:48:00;5.43;;;4.77;;
12567;SDS011;6349;50.904;6.136;2024-01-06T11:50:03;6.50;;;5.10;;
12567;SDS011;6349;50.904;6.136;2024-01-06T11:52:06;5.80;;;5.03;;
12567;SDS011;6349;50.904;6.136;2024-01-06T11:54:08;5.70;;;4.87;;
12567;SDS011;6349;50.904;6.136;2024-01-06T11:56:09;5.70;;;4.43;;
12567;SDS011;6349;50.904;6.136;2024-01-06T11:58:10;5.07;;;4.53;;
12567;SDS011;6349;50.904;6.136;2024-01-06T12:00:11;5.60;;;4.93;;
12567;SDS011;6349;50.904;6.136;2024-01-06T12:02:14;5.13;;;4.20;;
12567;SDS011;6349;50.904;6.136;2024-01-06T12:04:14;5.77;;;4.63;;
12567;SDS011;6349;50.904;6.136;2024-01-06T12:06:19;6.03;;;4.97;;
12567;SDS011;6349;50.904;6.136;2024-01-06T12:08:21;5.97;;;4.47;;
12567;SDS011;6349;50.904;6.136;2024-01-06T12:10:22;5.40;;;4.50;;
12567;SDS011;6349;50.904;6.136;2024-01-06T12:12:23;7.37;;;4.73;;
12567;SDS011;6349;50.904;6.136;2024-01-06T12:14:23;4.97;;;4.30;;
12567;SDS011;6349;50.904;6.136;2024-01-06T12:16:24;5.27;;;4.50;;
12567;SDS011;6349;50.904;6.136;2024-01-06T12:18:27;5.07;;;4.27;;